createdAt,value
2023-01-23T00:01:20.760Z,25.75
2023-01-23T00:03:47.474Z,28.92
2023-01-23T00:06:15.971Z,28.58
2023-01-23T00:08:44.723Z,25.85
2023-01-23T00:11:14.338Z,30.75
2023-01-23T00:13:41.223Z,26.40
2023-01-23T00:16:13.865Z,25.30
2023-01-23T00:18:40.997Z,26.63
2023-01-23T00:21:13.424Z,30.02
2023-01-23T00:23:43.997Z,26.13
2023-01-23T00:26:15.539Z,26.38
2023-01-23T00:28:43.719Z,24.50
2023-01-23T00:31:13.811Z,27.10
2023-01-23T00:33:41.481Z,28.13
2023-01-23T00:36:08.944Z,23.92
2023-01-23T00:38:36.007Z,25.58
2023-01-23T00:41:03.723Z,28.98
2023-01-23T00:43:31.138Z,23.92
2023-01-23T00:45:57.999Z,27.98
2023-01-23T00:48:25.032Z,25.88
2023-01-23T00:50:52.313Z,25.05
2023-01-23T00:53:19.363Z,28.80
2023-01-23T00:55:46.056Z,27.17
2023-01-23T00:58:12.957Z,25.42
2023-01-23T01:00:40.261Z,27.85
2023-01-23T01:03:07.454Z,25.60
2023-01-23T01:05:34.760Z,25.23
2023-01-23T01:08:01.528Z,23.85
2023-01-23T01:10:29.576Z,25.35
2023-01-23T01:12:57.686Z,26.25
2023-01-23T01:15:24.943Z,22.95
2023-01-23T01:17:54.157Z,24.10
2023-01-23T01:20:25.969Z,26.45
2023-01-23T01:22:54.365Z,27.52
2023-01-23T01:25:21.265Z,29.83
2023-01-23T01:27:48.782Z,24.98
2023-01-23T01:30:18.029Z,28.17
2023-01-23T01:32:45.129Z,23.35
2023-01-23T01:35:12.102Z,26.73
2023-01-23T01:37:40.915Z,23.05
2023-01-23T01:40:12.432Z,26.17
2023-01-23T01:42:49.434Z,25.90
2023-01-23T01:45:53.688Z,25.63
2023-01-23T01:48:24.553Z,26.98
2023-01-23T01:50:52.072Z,27.00
2023-01-23T01:53:20.703Z,29.20
2023-01-23T01:55:48.003Z,26.02
2023-01-23T01:58:14.952Z,25.65
2023-01-23T02:00:41.944Z,25.30
2023-01-23T02:03:08.953Z,29.48
2023-01-23T02:05:43.652Z,25.73
2023-01-23T02:08:29.453Z,25.45
2023-01-23T02:10:56.726Z,27.23
2023-01-23T02:13:35.973Z,24.08
2023-01-23T02:16:07.030Z,29.33
2023-01-23T02:18:38.552Z,28.80
2023-01-23T02:21:07.789Z,31.42
2023-01-23T02:23:52.942Z,28.70
2023-01-23T02:26:27.756Z,27.73
2023-01-23T02:28:55.941Z,31.08
2023-01-23T02:31:23.158Z,28.10
2023-01-23T02:33:53.150Z,24.48
2023-01-23T02:36:23.512Z,32.72
2023-01-23T02:39:06.118Z,31.05
2023-01-23T02:41:38.138Z,27.02
2023-01-23T02:44:12.844Z,32.67
2023-01-23T02:46:40.331Z,28.63
2023-01-23T02:49:07.289Z,30.88
2023-01-23T02:51:34.049Z,31.63
2023-01-23T02:54:01.016Z,29.70
2023-01-23T02:56:27.734Z,28.98
2023-01-23T02:59:13.033Z,28.40
2023-01-23T03:01:39.832Z,27.98
2023-01-23T03:04:06.886Z,32.20
2023-01-23T03:06:38.337Z,32.03
2023-01-23T03:09:08.652Z,34.47
2023-01-23T03:11:37.863Z,30.98
2023-01-23T03:14:06.341Z,32.33
2023-01-23T03:16:36.565Z,31.00
2023-01-23T03:19:08.219Z,35.30
2023-01-23T03:21:40.671Z,30.80
2023-01-23T03:24:09.563Z,32.67
2023-01-23T03:26:39.567Z,31.35
2023-01-23T03:29:24.789Z,37.95
2023-01-23T03:31:51.745Z,37.05
2023-01-23T03:34:19.054Z,36.35
2023-01-23T03:36:45.956Z,32.45
2023-01-23T03:39:31.039Z,30.27
2023-01-23T03:41:57.708Z,32.47
2023-01-23T03:44:24.390Z,28.90
2023-01-23T03:46:52.413Z,31.80
2023-01-23T03:49:19.717Z,35.10
2023-01-23T03:51:46.455Z,29.85
2023-01-23T03:54:14.631Z,35.70
2023-01-23T03:56:42.356Z,32.53
2023-01-23T03:59:09.694Z,32.72
2023-01-23T04:01:36.988Z,34.15
2023-01-23T04:04:03.909Z,31.60
2023-01-23T04:06:31.394Z,28.55
2023-01-23T04:08:58.281Z,30.00
2023-01-23T04:11:26.514Z,33.65
2023-01-23T04:13:54.383Z,32.47
2023-01-23T04:16:22.789Z,32.40
2023-01-23T04:18:50.740Z,37.35
2023-01-23T04:21:17.798Z,34.17
2023-01-23T04:23:44.679Z,37.72
2023-01-23T04:26:11.509Z,34.10
2023-01-23T04:28:38.317Z,37.83
2023-01-23T04:31:05.723Z,29.80
2023-01-23T04:33:32.438Z,31.73
2023-01-23T04:36:01.911Z,35.42
2023-01-23T04:38:30.346Z,28.23
2023-01-23T04:40:57.353Z,33.38
2023-01-23T04:43:24.096Z,30.02
2023-01-23T04:45:52.465Z,29.95
2023-01-23T04:48:19.826Z,31.00
2023-01-23T04:50:46.537Z,32.28
2023-01-23T04:53:14.029Z,33.78
2023-01-23T04:55:40.844Z,37.67
2023-01-23T04:58:07.987Z,28.52
2023-01-23T05:00:34.629Z,33.20
2023-01-23T05:03:02.611Z,32.25
2023-01-23T05:05:29.339Z,33.15
2023-01-23T05:07:56.118Z,35.67
2023-01-23T05:10:23.069Z,30.67
2023-01-23T05:12:49.936Z,36.60
2023-01-23T05:15:17.333Z,34.80
2023-01-23T05:17:44.127Z,29.17
2023-01-23T05:20:11.837Z,32.25
2023-01-23T05:22:39.464Z,32.95
2023-01-23T05:25:06.835Z,37.97
2023-01-23T05:27:34.595Z,36.17
2023-01-23T05:30:01.257Z,39.05
2023-01-23T05:32:27.917Z,34.10
2023-01-23T05:34:54.564Z,37.58
2023-01-23T05:37:25.333Z,37.22
2023-01-23T05:39:52.346Z,32.72
2023-01-23T05:42:19.126Z,38.10
2023-01-23T05:44:45.789Z,35.08
2023-01-23T05:47:12.621Z,37.42
2023-01-23T05:49:39.293Z,35.75
2023-01-23T05:52:06.208Z,37.78
2023-01-23T05:54:32.917Z,39.92
2023-01-23T05:56:59.769Z,36.58
2023-01-23T05:59:26.386Z,41.55
2023-01-23T06:01:53.042Z,37.63
2023-01-23T06:04:19.689Z,37.47
2023-01-23T06:06:46.497Z,41.83
2023-01-23T06:09:13.181Z,38.72
2023-01-23T06:11:39.998Z,40.58
2023-01-23T06:14:06.636Z,41.22
2023-01-23T06:16:33.277Z,33.97
2023-01-23T06:19:00.174Z,34.65
2023-01-23T06:21:26.929Z,42.15
2023-01-23T06:23:53.609Z,36.28
2023-01-23T06:26:20.435Z,37.92
2023-01-23T06:28:47.261Z,39.78
2023-01-23T06:31:14.068Z,41.35
2023-01-23T06:33:40.778Z,36.40
2023-01-23T06:36:08.223Z,41.08
2023-01-23T06:38:35.090Z,39.72
2023-01-23T06:41:02.052Z,43.35
2023-01-23T06:43:28.773Z,40.75
2023-01-23T06:45:55.456Z,40.22
2023-01-23T06:48:22.424Z,41.97
2023-01-23T06:50:49.372Z,39.65
2023-01-23T06:53:17.615Z,39.45
2023-01-23T06:55:44.383Z,38.55
2023-01-23T06:58:11.448Z,34.88
2023-01-23T07:00:38.176Z,38.83
2023-01-23T07:03:04.911Z,40.78
2023-01-23T07:05:32.554Z,38.78
2023-01-23T07:07:59.491Z,39.15
2023-01-23T07:10:26.403Z,38.90
2023-01-23T07:12:53.182Z,35.78
2023-01-23T07:15:19.854Z,36.25
2023-01-23T07:17:47.757Z,39.40
2023-01-23T07:20:15.432Z,37.63
2023-01-23T07:22:42.192Z,37.97
2023-01-23T07:25:09.077Z,37.70
2023-01-23T07:27:35.879Z,36.03
2023-01-23T07:30:02.740Z,37.92
2023-01-23T07:32:29.439Z,38.05
2023-01-23T07:34:56.177Z,40.30
2023-01-23T07:37:25.102Z,36.35
2023-01-23T07:39:54.054Z,39.15
2023-01-23T07:42:20.893Z,36.50
2023-01-23T07:44:47.537Z,37.45
2023-01-23T07:47:14.307Z,38.45
2023-01-23T07:49:40.986Z,35.75
2023-01-23T07:52:07.773Z,37.90
2023-01-23T07:54:34.509Z,38.63
2023-01-23T07:57:01.399Z,39.20
2023-01-23T07:59:28.091Z,42.30
2023-01-23T08:01:54.791Z,37.33
2023-01-23T08:04:21.586Z,39.80
2023-01-23T08:06:48.435Z,37.58
2023-01-23T08:09:15.128Z,37.88
2023-01-23T08:11:41.797Z,38.60
2023-01-23T08:14:08.436Z,39.58
2023-01-23T08:16:35.135Z,38.10
2023-01-23T08:19:01.852Z,40.38
2023-01-23T08:21:28.596Z,38.50
2023-01-23T08:23:55.299Z,39.88
2023-01-23T08:26:21.932Z,35.17
2023-01-23T08:28:48.804Z,39.75
2023-01-23T08:31:15.666Z,39.47
2023-01-23T08:33:43.027Z,38.60
2023-01-23T08:36:12.965Z,38.15
2023-01-23T08:38:40.071Z,34.97
2023-01-23T08:41:06.953Z,37.05
2023-01-23T08:43:33.668Z,36.33
2023-01-23T08:46:00.853Z,40.35
2023-01-23T08:48:28.536Z,37.28
2023-01-23T08:51:10.823Z,40.60
2023-01-23T08:53:37.538Z,36.45
2023-01-23T08:56:06.682Z,36.17
2023-01-23T08:58:33.930Z,36.60
2023-01-23T09:01:00.981Z,35.00
2023-01-23T09:03:28.620Z,35.28
2023-01-23T09:05:55.376Z,36.30
2023-01-23T09:08:22.302Z,33.67
2023-01-23T09:10:49.122Z,34.50
2023-01-23T09:13:15.900Z,36.92
2023-01-23T09:15:42.752Z,35.90
2023-01-23T09:18:12.658Z,34.72
2023-01-23T09:20:39.388Z,39.33
2023-01-23T09:23:06.071Z,39.50
2023-01-23T09:25:37.502Z,32.08
2023-01-23T09:28:04.512Z,36.00
2023-01-23T09:30:31.245Z,38.55
2023-01-23T09:32:57.941Z,36.90
2023-01-23T09:35:24.714Z,36.05
2023-01-23T09:38:01.452Z,35.65
2023-01-23T09:40:35.110Z,36.88
2023-01-23T09:43:31.637Z,31.63
2023-01-23T09:46:10.787Z,35.38
2023-01-23T09:48:48.315Z,32.97
2023-01-23T09:52:00.258Z,34.15
2023-01-23T09:54:32.622Z,31.15
2023-01-23T09:57:03.909Z,32.83
2023-01-23T09:59:54.031Z,33.72
2023-01-23T10:02:26.924Z,38.05
2023-01-23T10:04:54.691Z,42.08
2023-01-23T10:07:48.249Z,34.50
2023-01-23T10:10:53.381Z,34.30
2023-01-23T10:13:28.180Z,32.80
2023-01-23T10:16:12.442Z,32.03
2023-01-23T10:19:07.867Z,30.88
2023-01-23T10:21:46.194Z,33.10
2023-01-23T10:24:19.081Z,34.85
2023-01-23T10:26:48.754Z,33.63
2023-01-23T10:29:34.682Z,31.85
2023-01-23T10:32:06.386Z,32.85
2023-01-23T10:34:48.807Z,31.35
2023-01-23T10:37:21.766Z,30.00
2023-01-23T10:39:59.043Z,28.38
2023-01-23T10:42:27.410Z,29.13
2023-01-23T10:44:54.248Z,29.98
2023-01-23T10:47:32.042Z,30.83
2023-01-23T10:49:59.536Z,29.60
2023-01-23T10:52:37.509Z,26.25
2023-01-23T10:55:30.816Z,28.77
2023-01-23T10:58:03.066Z,30.08
2023-01-23T11:00:39.668Z,32.20
2023-01-23T11:03:21.756Z,30.27
2023-01-23T11:05:53.617Z,29.80
2023-01-23T11:08:38.202Z,32.60
2023-01-23T11:11:16.767Z,29.25
2023-01-23T11:13:45.525Z,33.65
2023-01-23T11:16:18.185Z,31.67
2023-01-23T11:19:07.129Z,30.65
2023-01-23T11:21:54.231Z,25.30
2023-01-23T11:24:30.597Z,26.65
2023-01-23T11:27:28.128Z,22.52
2023-01-23T11:30:13.834Z,25.73
2023-01-23T11:32:55.122Z,25.70
2023-01-23T11:35:34.569Z,25.50
2023-01-23T11:38:04.253Z,28.45
2023-01-23T11:40:31.401Z,24.90
2023-01-23T11:42:58.233Z,23.70
2023-01-23T11:45:43.964Z,25.17
2023-01-23T11:48:27.429Z,24.02
2023-01-23T11:51:25.419Z,28.05
2023-01-23T11:54:17.109Z,26.30
2023-01-23T11:56:50.448Z,30.85
2023-01-23T11:59:36.218Z,23.17
2023-01-23T12:02:28.234Z,25.92
2023-01-23T12:07:24.920Z,24.42
2023-01-23T12:10:15.492Z,26.17
2023-01-23T12:12:49.054Z,21.55
2023-01-23T12:15:29.935Z,26.60
2023-01-23T12:18:17.254Z,23.63
2023-01-23T12:21:18.103Z,25.42
2023-01-23T12:23:56.525Z,22.40
2023-01-23T12:26:26.480Z,21.80
2023-01-23T12:29:25.427Z,22.02
2023-01-23T12:32:14.551Z,22.10
2023-01-23T12:34:58.904Z,23.40
2023-01-23T12:37:57.997Z,22.30
2023-01-23T12:40:31.013Z,21.20
2023-01-23T12:43:16.258Z,17.00
2023-01-23T12:45:56.239Z,18.10
2023-01-23T12:48:29.626Z,16.67
2023-01-23T12:51:10.544Z,18.92
2023-01-23T12:53:39.860Z,20.42
2023-01-23T12:56:23.614Z,19.23
2023-01-23T12:59:10.650Z,18.40
2023-01-23T13:01:37.661Z,21.05
2023-01-23T13:04:21.857Z,18.42
2023-01-23T13:07:07.438Z,20.02
2023-01-23T13:10:06.322Z,18.63
2023-01-23T13:12:34.005Z,16.80
2023-01-23T13:15:38.745Z,18.77
2023-01-23T13:18:17.266Z,18.02
2023-01-23T13:21:18.655Z,17.35
2023-01-23T13:23:45.504Z,18.27
2023-01-23T13:26:23.241Z,19.27
2023-01-23T13:28:54.869Z,20.15
2023-01-23T13:31:34.275Z,18.77
2023-01-23T13:34:14.961Z,22.15
2023-01-23T13:36:50.266Z,21.05
2023-01-23T13:39:17.021Z,18.92
2023-01-23T13:42:12.836Z,19.23
2023-01-23T13:45:18.210Z,16.95
2023-01-23T14:22:44.497Z,16.15
2023-01-23T14:25:33.814Z,15.93
